sensor_id;sensor_type;location;lat;lon;timestamp;P1;durP1;ratioP1;P2;durP2;ratioP2
5981;SDS011;3018;48.730;9.336;2023-07-30T00:00:25;2.75;;;1.60;;
5981;SDS011;3018;48.730;9.336;2023-07-30T00:02:51;1.63;;;1.63;;
5981;SDS011;3018;48.730;9.336;2023-07-30T00:05:18;1.83;;;1.60;;
5981;SDS011;3018;48.730;9.336;2023-07-30T00:07:44;1.70;;;1.60;;
5981;SDS011;3018;48.730;9.336;2023-07-30T00:10:10;6.30;;;1.70;;
5981;SDS011;3018;48.730;9.336;2023-07-30T00:12:37;1.98;;;1.88;;
5981;SDS011;3018;48.730;9.336;2023-07-30T00:15:05;3.38;;;1.90;;
5981;SDS011;3018;48.730;9.336;2023-07-30T00:17:31;2.05;;;1.92;;
5981;SDS011;3018;48.730;9.336;2023-07-30T00:19:58;5.85;;;1.95;;
5981;SDS011;3018;48.730;9.336;2023-07-30T00:22:24;3.80;;;2.08;;
5981;SDS011;3018;48.730;9.336;2023-07-30T00:24:50;5.32;;;2.00;;
5981;SDS011;3018;48.730;9.336;2023-07-30T00:27:17;2.30;;;1.70;;
5981;SDS011;3018;48.730;9.336;2023-07-30T00:29:43;2.45;;;1.90;;
5981;SDS011;3018;48.730;9.336;2023-07-30T00:32:11;2.75;;;2.65;;
5981;SDS011;3018;48.730;9.336;2023-07-30T00:34:40;2.88;;;2.67;;
5981;SDS011;3018;48.730;9.336;2023-07-30T00:37:07;3.30;;;3.08;;
5981;SDS011;3018;48.730;9.336;2023-07-30T00:39:33;4.53;;;3.17;;
5981;SDS011;3018;48.730;9.336;2023-07-30T00:41:59;3.60;;;3.30;;
5981;SDS011;3018;48.730;9.336;2023-07-30T00:44:26;3.55;;;3.25;;
5981;SDS011;3018;48.730;9.336;2023-07-30T00:46:52;3.55;;;3.35;;
5981;SDS011;3018;48.730;9.336;2023-07-30T00:49:20;3.75;;;3.45;;
5981;SDS011;3018;48.730;9.336;2023-07-30T00:51:46;3.53;;;3.08;;
5981;SDS011;3018;48.730;9.336;2023-07-30T00:54:12;3.60;;;3.28;;
5981;SDS011;3018;48.730;9.336;2023-07-30T00:56:39;3.03;;;2.75;;
5981;SDS011;3018;48.730;9.336;2023-07-30T00:59:07;3.28;;;3.17;;
5981;SDS011;3018;48.730;9.336;2023-07-30T01:01:34;3.22;;;3.00;;
5981;SDS011;3018;48.730;9.336;2023-07-30T01:04:01;3.15;;;2.95;;
5981;SDS011;3018;48.730;9.336;2023-07-30T01:06:29;3.22;;;2.97;;
5981;SDS011;3018;48.730;9.336;2023-07-30T01:08:55;3.38;;;2.97;;
5981;SDS011;3018;48.730;9.336;2023-07-30T01:11:22;5.38;;;2.60;;
5981;SDS011;3018;48.730;9.336;2023-07-30T01:13:48;2.83;;;2.63;;
5981;SDS011;3018;48.730;9.336;2023-07-30T01:16:14;4.28;;;2.95;;
5981;SDS011;3018;48.730;9.336;2023-07-30T01:18:41;3.63;;;2.75;;
5981;SDS011;3018;48.730;9.336;2023-07-30T01:21:08;3.03;;;2.85;;
5981;SDS011;3018;48.730;9.336;2023-07-30T01:23:35;5.45;;;2.95;;
5981;SDS011;3018;48.730;9.336;2023-07-30T01:26:02;6.60;;;3.08;;
5981;SDS011;3018;48.730;9.336;2023-07-30T01:28:30;3.25;;;2.95;;
5981;SDS011;3018;48.730;9.336;2023-07-30T01:30:59;3.40;;;3.10;;
5981;SDS011;3018;48.730;9.336;2023-07-30T01:33:27;3.72;;;3.22;;
5981;SDS011;3018;48.730;9.336;2023-07-30T01:35:54;4.00;;;3.25;;
5981;SDS011;3018;48.730;9.336;2023-07-30T01:38:23;4.10;;;3.42;;
5981;SDS011;3018;48.730;9.336;2023-07-30T01:40:49;6.28;;;3.10;;
5981;SDS011;3018;48.730;9.336;2023-07-30T01:43:16;4.15;;;3.70;;
5981;SDS011;3018;48.730;9.336;2023-07-30T01:45:42;3.97;;;3.67;;
5981;SDS011;3018;48.730;9.336;2023-07-30T01:48:08;4.30;;;3.78;;
5981;SDS011;3018;48.730;9.336;2023-07-30T01:50:34;3.95;;;3.65;;
5981;SDS011;3018;48.730;9.336;2023-07-30T01:53:01;3.67;;;3.35;;
5981;SDS011;3018;48.730;9.336;2023-07-30T01:55:28;6.18;;;3.78;;
5981;SDS011;3018;48.730;9.336;2023-07-30T01:57:55;5.90;;;3.47;;
5981;SDS011;3018;48.730;9.336;2023-07-30T02:00:21;4.68;;;4.25;;
5981;SDS011;3018;48.730;9.336;2023-07-30T02:02:47;6.75;;;5.40;;
5981;SDS011;3018;48.730;9.336;2023-07-30T02:05:13;4.05;;;3.85;;
5981;SDS011;3018;48.730;9.336;2023-07-30T02:07:40;4.18;;;3.75;;
5981;SDS011;3018;48.730;9.336;2023-07-30T02:10:06;3.28;;;3.05;;
5981;SDS011;3018;48.730;9.336;2023-07-30T02:15:30;7.15;;;3.67;;
5981;SDS011;3018;48.730;9.336;2023-07-30T02:17:56;5.22;;;3.20;;
5981;SDS011;3018;48.730;9.336;2023-07-30T02:20:22;3.67;;;3.35;;
5981;SDS011;3018;48.730;9.336;2023-07-30T02:22:49;9.50;;;3.95;;
5981;SDS011;3018;48.730;9.336;2023-07-30T02:25:15;3.63;;;3.42;;
5981;SDS011;3018;48.730;9.336;2023-07-30T02:27:41;3.50;;;3.20;;
5981;SDS011;3018;48.730;9.336;2023-07-30T02:30:08;3.65;;;3.45;;
5981;SDS011;3018;48.730;9.336;2023-07-30T02:32:35;4.22;;;3.58;;
5981;SDS011;3018;48.730;9.336;2023-07-30T02:35:02;3.40;;;3.20;;
5981;SDS011;3018;48.730;9.336;2023-07-30T02:37:28;3.75;;;3.35;;
5981;SDS011;3018;48.730;9.336;2023-07-30T02:39:54;4.20;;;3.30;;
5981;SDS011;3018;48.730;9.336;2023-07-30T02:42:21;3.20;;;3.10;;
5981;SDS011;3018;48.730;9.336;2023-07-30T02:44:47;3.78;;;3.40;;
5981;SDS011;3018;48.730;9.336;2023-07-30T02:47:13;6.50;;;3.20;;
5981;SDS011;3018;48.730;9.336;2023-07-30T02:49:41;3.38;;;3.20;;
5981;SDS011;3018;48.730;9.336;2023-07-30T02:52:07;4.10;;;3.72;;
5981;SDS011;3018;48.730;9.336;2023-07-30T02:54:33;5.20;;;3.53;;
5981;SDS011;3018;48.730;9.336;2023-07-30T02:57:00;3.97;;;3.67;;
5981;SDS011;3018;48.730;9.336;2023-07-30T02:59:27;3.20;;;3.10;;
5981;SDS011;3018;48.730;9.336;2023-07-30T03:01:53;4.63;;;3.80;;
5981;SDS011;3018;48.730;9.336;2023-07-30T03:04:19;3.75;;;3.45;;
5981;SDS011;3018;48.730;9.336;2023-07-30T03:06:47;3.85;;;3.60;;
5981;SDS011;3018;48.730;9.336;2023-07-30T03:09:13;4.47;;;3.50;;
5981;SDS011;3018;48.730;9.336;2023-07-30T03:11:40;5.03;;;3.33;;
5981;SDS011;3018;48.730;9.336;2023-07-30T03:14:06;3.30;;;3.10;;
5981;SDS011;3018;48.730;9.336;2023-07-30T03:16:32;4.00;;;3.25;;
5981;SDS011;3018;48.730;9.336;2023-07-30T03:18:58;4.47;;;3.00;;
5981;SDS011;3018;48.730;9.336;2023-07-30T03:21:25;3.58;;;2.72;;
5981;SDS011;3018;48.730;9.336;2023-07-30T03:23:52;3.28;;;2.95;;
5981;SDS011;3018;48.730;9.336;2023-07-30T03:26:18;3.33;;;3.13;;
5981;SDS011;3018;48.730;9.336;2023-07-30T03:28:45;3.08;;;2.88;;
5981;SDS011;3018;48.730;9.336;2023-07-30T03:31:11;3.08;;;2.97;;
5981;SDS011;3018;48.730;9.336;2023-07-30T03:33:37;3.17;;;2.90;;
5981;SDS011;3018;48.730;9.336;2023-07-30T03:36:04;2.80;;;2.60;;
5981;SDS011;3018;48.730;9.336;2023-07-30T03:38:30;4.10;;;2.70;;
5981;SDS011;3018;48.730;9.336;2023-07-30T03:40:58;7.55;;;2.90;;
5981;SDS011;3018;48.730;9.336;2023-07-30T03:43:24;3.08;;;2.83;;
5981;SDS011;3018;48.730;9.336;2023-07-30T03:45:51;3.92;;;2.88;;
5981;SDS011;3018;48.730;9.336;2023-07-30T03:48:17;2.33;;;2.28;;
5981;SDS011;3018;48.730;9.336;2023-07-30T03:50:43;2.90;;;2.80;;
5981;SDS011;3018;48.730;9.336;2023-07-30T03:53:09;2.95;;;2.75;;
5981;SDS011;3018;48.730;9.336;2023-07-30T03:55:36;3.00;;;2.72;;
5981;SDS011;3018;48.730;9.336;2023-07-30T03:58:04;3.38;;;2.95;;
5981;SDS011;3018;48.730;9.336;2023-07-30T04:00:30;4.50;;;3.40;;
5981;SDS011;3018;48.730;9.336;2023-07-30T04:02:56;3.28;;;3.15;;
5981;SDS011;3018;48.730;9.336;2023-07-30T04:05:23;3.38;;;3.17;;
5981;SDS011;3018;48.730;9.336;2023-07-30T04:07:49;3.80;;;3.60;;
5981;SDS011;3018;48.730;9.336;2023-07-30T04:10:15;3.22;;;3.10;;
5981;SDS011;3018;48.730;9.336;2023-07-30T04:12:42;6.47;;;3.22;;
5981;SDS011;3018;48.730;9.336;2023-07-30T04:15:09;3.15;;;3.05;;
5981;SDS011;3018;48.730;9.336;2023-07-30T04:17:36;3.30;;;3.08;;
5981;SDS011;3018;48.730;9.336;2023-07-30T04:20:03;4.35;;;3.08;;
5981;SDS011;3018;48.730;9.336;2023-07-30T04:22:29;3.85;;;3.53;;
5981;SDS011;3018;48.730;9.336;2023-07-30T04:24:55;8.65;;;3.88;;
5981;SDS011;3018;48.730;9.336;2023-07-30T04:27:22;4.10;;;3.67;;
5981;SDS011;3018;48.730;9.336;2023-07-30T04:29:48;3.20;;;3.00;;
5981;SDS011;3018;48.730;9.336;2023-07-30T04:32:15;8.15;;;3.80;;
5981;SDS011;3018;48.730;9.336;2023-07-30T04:34:42;6.45;;;3.15;;
5981;SDS011;3018;48.730;9.336;2023-07-30T04:37:08;3.92;;;3.40;;
5981;SDS011;3018;48.730;9.336;2023-07-30T04:39:35;4.65;;;3.50;;
5981;SDS011;3018;48.730;9.336;2023-07-30T04:42:01;4.15;;;3.30;;
5981;SDS011;3018;48.730;9.336;2023-07-30T04:44:28;3.40;;;3.30;;
5981;SDS011;3018;48.730;9.336;2023-07-30T04:46:54;6.40;;;3.40;;
5981;SDS011;3018;48.730;9.336;2023-07-30T04:49:22;3.60;;;3.30;;
5981;SDS011;3018;48.730;9.336;2023-07-30T04:51:48;5.95;;;3.50;;
5981;SDS011;3018;48.730;9.336;2023-07-30T04:54:14;3.20;;;3.00;;
5981;SDS011;3018;48.730;9.336;2023-07-30T04:56:41;3.17;;;2.85;;
5981;SDS011;3018;48.730;9.336;2023-07-30T04:59:07;4.28;;;2.97;;
5981;SDS011;3018;48.730;9.336;2023-07-30T05:01:33;3.50;;;3.20;;
5981;SDS011;3018;48.730;9.336;2023-07-30T05:03:59;3.65;;;3.45;;
5981;SDS011;3018;48.730;9.336;2023-07-30T05:06:27;3.47;;;2.70;;
5981;SDS011;3018;48.730;9.336;2023-07-30T05:08:53;3.33;;;3.20;;
5981;SDS011;3018;48.730;9.336;2023-07-30T05:11:20;3.13;;;3.00;;
5981;SDS011;3018;48.730;9.336;2023-07-30T05:13:46;3.30;;;3.10;;
5981;SDS011;3018;48.730;9.336;2023-07-30T05:16:13;3.08;;;2.92;;
5981;SDS011;3018;48.730;9.336;2023-07-30T05:18:39;4.03;;;3.40;;
5981;SDS011;3018;48.730;9.336;2023-07-30T05:21:05;3.25;;;3.08;;
5981;SDS011;3018;48.730;9.336;2023-07-30T05:23:33;3.20;;;3.00;;
5981;SDS011;3018;48.730;9.336;2023-07-30T05:25:59;3.22;;;2.78;;
5981;SDS011;3018;48.730;9.336;2023-07-30T05:28:25;3.13;;;2.88;;
5981;SDS011;3018;48.730;9.336;2023-07-30T05:30:52;3.78;;;2.95;;
5981;SDS011;3018;48.730;9.336;2023-07-30T05:33:18;3.38;;;2.85;;
5981;SDS011;3018;48.730;9.336;2023-07-30T05:35:44;3.75;;;3.55;;
5981;SDS011;3018;48.730;9.336;2023-07-30T05:38:10;5.35;;;2.97;;
5981;SDS011;3018;48.730;9.336;2023-07-30T05:40:38;3.42;;;3.13;;
5981;SDS011;3018;48.730;9.336;2023-07-30T05:43:04;4.97;;;3.90;;
5981;SDS011;3018;48.730;9.336;2023-07-30T05:45:30;3.63;;;3.10;;
5981;SDS011;3018;48.730;9.336;2023-07-30T05:47:57;4.50;;;3.35;;
5981;SDS011;3018;48.730;9.336;2023-07-30T05:50:23;4.90;;;3.88;;
5981;SDS011;3018;48.730;9.336;2023-07-30T05:52:49;5.65;;;4.15;;
5981;SDS011;3018;48.730;9.336;2023-07-30T05:55:16;6.80;;;3.58;;
5981;SDS011;3018;48.730;9.336;2023-07-30T05:57:43;3.97;;;3.55;;
5981;SDS011;3018;48.730;9.336;2023-07-30T06:00:11;6.20;;;3.40;;
5981;SDS011;3018;48.730;9.336;2023-07-30T06:02:37;4.07;;;3.53;;
5981;SDS011;3018;48.730;9.336;2023-07-30T06:05:04;4.45;;;3.28;;
5981;SDS011;3018;48.730;9.336;2023-07-30T06:07:30;3.58;;;3.28;;
5981;SDS011;3018;48.730;9.336;2023-07-30T06:09:56;3.03;;;2.78;;
5981;SDS011;3018;48.730;9.336;2023-07-30T06:12:22;3.78;;;3.00;;
5981;SDS011;3018;48.730;9.336;2023-07-30T06:14:50;6.55;;;3.33;;
5981;SDS011;3018;48.730;9.336;2023-07-30T06:17:16;2.90;;;2.70;;
5981;SDS011;3018;48.730;9.336;2023-07-30T06:19:43;2.95;;;2.75;;
5981;SDS011;3018;48.730;9.336;2023-07-30T06:22:09;3.30;;;3.10;;
5981;SDS011;3018;48.730;9.336;2023-07-30T06:24:35;3.33;;;3.10;;
5981;SDS011;3018;48.730;9.336;2023-07-30T06:27:01;5.80;;;2.85;;
5981;SDS011;3018;48.730;9.336;2023-07-30T06:29:28;2.75;;;2.65;;
5981;SDS011;3018;48.730;9.336;2023-07-30T06:31:55;4.10;;;2.28;;
5981;SDS011;3018;48.730;9.336;2023-07-30T06:34:22;3.17;;;2.47;;
5981;SDS011;3018;48.730;9.336;2023-07-30T06:36:48;2.60;;;2.50;;
5981;SDS011;3018;48.730;9.336;2023-07-30T06:39:14;3.30;;;2.90;;
5981;SDS011;3018;48.730;9.336;2023-07-30T06:41:40;4.22;;;2.30;;
5981;SDS011;3018;48.730;9.336;2023-07-30T06:44:07;2.80;;;2.60;;
5981;SDS011;3018;48.730;9.336;2023-07-30T06:46:33;2.20;;;2.10;;
5981;SDS011;3018;48.730;9.336;2023-07-30T06:49:01;4.15;;;2.15;;
5981;SDS011;3018;48.730;9.336;2023-07-30T06:51:27;2.03;;;1.92;;
5981;SDS011;3018;48.730;9.336;2023-07-30T06:53:54;2.30;;;2.20;;
5981;SDS011;3018;48.730;9.336;2023-07-30T06:56:21;3.90;;;2.03;;
5981;SDS011;3018;48.730;9.336;2023-07-30T06:58:47;2.05;;;1.95;;
5981;SDS011;3018;48.730;9.336;2023-07-30T07:01:13;3.72;;;1.80;;
5981;SDS011;3018;48.730;9.336;2023-07-30T07:03:40;2.10;;;1.90;;
5981;SDS011;3018;48.730;9.336;2023-07-30T07:06:07;1.52;;;1.42;;
5981;SDS011;3018;48.730;9.336;2023-07-30T07:08:33;2.17;;;2.08;;
5981;SDS011;3018;48.730;9.336;2023-07-30T07:11:00;2.22;;;1.80;;
5981;SDS011;3018;48.730;9.336;2023-07-30T07:13:26;1.67;;;1.60;;
5981;SDS011;3018;48.730;9.336;2023-07-30T07:15:52;2.15;;;1.85;;
5981;SDS011;3018;48.730;9.336;2023-07-30T07:18:18;2.28;;;2.08;;
5981;SDS011;3018;48.730;9.336;2023-07-30T07:20:45;4.05;;;1.63;;
5981;SDS011;3018;48.730;9.336;2023-07-30T07:23:12;1.70;;;1.60;;
5981;SDS011;3018;48.730;9.336;2023-07-30T07:25:39;2.47;;;1.88;;
5981;SDS011;3018;48.730;9.336;2023-07-30T07:28:05;5.05;;;1.42;;
5981;SDS011;3018;48.730;9.336;2023-07-30T07:30:33;1.40;;;1.40;;
5981;SDS011;3018;48.730;9.336;2023-07-30T07:32:59;1.70;;;1.60;;
5981;SDS011;3018;48.730;9.336;2023-07-30T07:35:26;1.85;;;1.75;;
5981;SDS011;3018;48.730;9.336;2023-07-30T07:37:52;1.45;;;1.45;;
5981;SDS011;3018;48.730;9.336;2023-07-30T07:40:20;2.28;;;1.30;;
5981;SDS011;3018;48.730;9.336;2023-07-30T07:42:46;2.80;;;1.50;;
5981;SDS011;3018;48.730;9.336;2023-07-30T07:45:12;1.58;;;1.48;;
5981;SDS011;3018;48.730;9.336;2023-07-30T07:47:38;1.63;;;1.52;;
5981;SDS011;3018;48.730;9.336;2023-07-30T07:50:05;3.03;;;1.88;;
5981;SDS011;3018;48.730;9.336;2023-07-30T07:52:32;1.25;;;1.25;;
5981;SDS011;3018;48.730;9.336;2023-07-30T07:54:58;1.20;;;1.20;;
5981;SDS011;3018;48.730;9.336;2023-07-30T07:57:26;1.33;;;1.33;;
5981;SDS011;3018;48.730;9.336;2023-07-30T07:59:52;2.03;;;1.10;;
5981;SDS011;3018;48.730;9.336;2023-07-30T08:02:18;2.33;;;1.50;;
5981;SDS011;3018;48.730;9.336;2023-07-30T08:04:44;1.45;;;1.40;;
5981;SDS011;3018;48.730;9.336;2023-07-30T08:07:11;1.10;;;1.10;;
5981;SDS011;3018;48.730;9.336;2023-07-30T08:09:37;2.25;;;1.42;;
5981;SDS011;3018;48.730;9.336;2023-07-30T08:12:04;2.28;;;1.40;;
5981;SDS011;3018;48.730;9.336;2023-07-30T08:14:31;1.30;;;1.20;;
5981;SDS011;3018;48.730;9.336;2023-07-30T08:16:58;1.30;;;1.30;;
5981;SDS011;3018;48.730;9.336;2023-07-30T08:19:24;1.70;;;0.80;;
5981;SDS011;3018;48.730;9.336;2023-07-30T08:21:51;1.23;;;1.10;;
5981;SDS011;3018;48.730;9.336;2023-07-30T08:24:17;1.13;;;1.13;;
5981;SDS011;3018;48.730;9.336;2023-07-30T08:26:43;3.92;;;1.33;;
5981;SDS011;3018;48.730;9.336;2023-07-30T08:29:11;1.17;;;1.17;;
5981;SDS011;3018;48.730;9.336;2023-07-30T08:31:40;1.30;;;1.20;;
5981;SDS011;3018;48.730;9.336;2023-07-30T08:34:06;0.85;;;0.85;;
5981;SDS011;3018;48.730;9.336;2023-07-30T08:36:32;1.13;;;1.13;;
5981;SDS011;3018;48.730;9.336;2023-07-30T08:38:59;0.75;;;0.75;;
5981;SDS011;3018;48.730;9.336;2023-07-30T08:41:25;0.90;;;0.90;;
5981;SDS011;3018;48.730;9.336;2023-07-30T08:43:51;1.13;;;1.00;;
5981;SDS011;3018;48.730;9.336;2023-07-30T08:46:18;2.45;;;0.98;;
5981;SDS011;3018;48.730;9.336;2023-07-30T08:48:45;1.10;;;1.00;;
5981;SDS011;3018;48.730;9.336;2023-07-30T08:51:11;2.05;;;1.02;;
5981;SDS011;3018;48.730;9.336;2023-07-30T08:53:38;1.45;;;1.35;;
5981;SDS011;3018;48.730;9.336;2023-07-30T08:56:05;1.10;;;1.00;;
5981;SDS011;3018;48.730;9.336;2023-07-30T08:58:32;0.95;;;0.95;;
5981;SDS011;3018;48.730;9.336;2023-07-30T09:00:58;1.55;;;0.60;;
5981;SDS011;3018;48.730;9.336;2023-07-30T09:03:25;2.80;;;1.15;;
5981;SDS011;3018;48.730;9.336;2023-07-30T09:05:54;0.98;;;0.85;;
5981;SDS011;3018;48.730;9.336;2023-07-30T09:08:20;0.98;;;0.98;;
5981;SDS011;3018;48.730;9.336;2023-07-30T09:10:47;0.90;;;0.90;;
5981;SDS011;3018;48.730;9.336;2023-07-30T09:13:20;4.40;;;1.13;;
5981;SDS011;3018;48.730;9.336;2023-07-30T09:15:47;1.20;;;1.20;;
5981;SDS011;3018;48.730;9.336;2023-07-30T09:18:16;2.28;;;1.23;;
5981;SDS011;3018;48.730;9.336;2023-07-30T09:20:42;1.40;;;1.38;;
5981;SDS011;3018;48.730;9.336;2023-07-30T09:23:10;1.10;;;1.10;;
5981;SDS011;3018;48.730;9.336;2023-07-30T09:25:37;2.50;;;1.08;;
5981;SDS011;3018;48.730;9.336;2023-07-30T09:28:04;0.98;;;0.98;;
5981;SDS011;3018;48.730;9.336;2023-07-30T09:30:31;1.27;;;1.27;;
5981;SDS011;3018;48.730;9.336;2023-07-30T09:32:58;1.20;;;1.10;;
5981;SDS011;3018;48.730;9.336;2023-07-30T09:35:25;2.63;;;1.30;;
5981;SDS011;3018;48.730;9.336;2023-07-30T09:37:57;0.90;;;0.90;;
5981;SDS011;3018;48.730;9.336;2023-07-30T09:40:31;1.20;;;1.20;;
5981;SDS011;3018;48.730;9.336;2023-07-30T09:42:58;1.38;;;1.38;;
5981;SDS011;3018;48.730;9.336;2023-07-30T09:45:25;2.08;;;1.30;;
5981;SDS011;3018;48.730;9.336;2023-07-30T09:47:52;2.38;;;1.48;;
5981;SDS011;3018;48.730;9.336;2023-07-30T09:50:19;1.67;;;1.25;;
5981;SDS011;3018;48.730;9.336;2023-07-30T09:52:45;3.00;;;1.63;;
5981;SDS011;3018;48.730;9.336;2023-07-30T09:55:11;2.58;;;1.73;;
5981;SDS011;3018;48.730;9.336;2023-07-30T09:57:39;1.50;;;1.50;;
5981;SDS011;3018;48.730;9.336;2023-07-30T10:00:06;1.77;;;1.63;;
5981;SDS011;3018;48.730;9.336;2023-07-30T10:02:35;1.83;;;1.65;;
5981;SDS011;3018;48.730;9.336;2023-07-30T10:05:03;1.95;;;1.40;;
5981;SDS011;3018;48.730;9.336;2023-07-30T10:07:34;3.28;;;1.50;;
5981;SDS011;3018;48.730;9.336;2023-07-30T10:10:00;1.58;;;1.52;;
5981;SDS011;3018;48.730;9.336;2023-07-30T10:12:28;1.60;;;1.50;;
5981;SDS011;3018;48.730;9.336;2023-07-30T10:14:57;1.60;;;1.60;;
5981;SDS011;3018;48.730;9.336;2023-07-30T10:17:23;2.25;;;1.45;;
5981;SDS011;3018;48.730;9.336;2023-07-30T10:19:49;3.95;;;1.75;;
5981;SDS011;3018;48.730;9.336;2023-07-30T10:22:20;1.60;;;1.60;;
5981;SDS011;3018;48.730;9.336;2023-07-30T10:24:55;1.70;;;1.60;;
5981;SDS011;3018;48.730;9.336;2023-07-30T10:27:23;1.92;;;1.77;;
5981;SDS011;3018;48.730;9.336;2023-07-30T10:29:49;1.58;;;1.50;;
5981;SDS011;3018;48.730;9.336;2023-07-30T10:32:17;1.25;;;1.15;;
5981;SDS011;3018;48.730;9.336;2023-07-30T10:34:44;1.40;;;1.30;;
5981;SDS011;3018;48.730;9.336;2023-07-30T10:37:10;1.95;;;1.50;;
5981;SDS011;3018;48.730;9.336;2023-07-30T10:39:36;1.63;;;1.52;;
5981;SDS011;3018;48.730;9.336;2023-07-30T10:42:03;2.17;;;1.35;;
5981;SDS011;3018;48.730;9.336;2023-07-30T10:44:31;1.40;;;1.30;;
5981;SDS011;3018;48.730;9.336;2023-07-30T10:46:59;2.10;;;1.80;;
5981;SDS011;3018;48.730;9.336;2023-07-30T10:49:26;2.90;;;1.42;;
5981;SDS011;3018;48.730;9.336;2023-07-30T10:51:53;1.75;;;1.65;;
5981;SDS011;3018;48.730;9.336;2023-07-30T10:54:20;1.33;;;1.33;;
5981;SDS011;3018;48.730;9.336;2023-07-30T10:56:47;1.73;;;1.45;;
5981;SDS011;3018;48.730;9.336;2023-07-30T10:59:13;1.65;;;1.55;;
5981;SDS011;3018;48.730;9.336;2023-07-30T11:01:41;1.80;;;1.50;;
5981;SDS011;3018;48.730;9.336;2023-07-30T11:04:08;1.63;;;1.63;;
5981;SDS011;3018;48.730;9.336;2023-07-30T11:06:36;1.63;;;1.50;;
5981;SDS011;3018;48.730;9.336;2023-07-30T11:09:03;1.73;;;1.60;;
5981;SDS011;3018;48.730;9.336;2023-07-30T11:11:29;1.38;;;1.25;;
5981;SDS011;3018;48.730;9.336;2023-07-30T11:13:56;1.27;;;1.17;;
5981;SDS011;3018;48.730;9.336;2023-07-30T11:16:23;1.50;;;1.40;;
5981;SDS011;3018;48.730;9.336;2023-07-30T11:18:49;3.35;;;1.40;;
5981;SDS011;3018;48.730;9.336;2023-07-30T11:21:16;1.58;;;1.48;;
5981;SDS011;3018;48.730;9.336;2023-07-30T11:23:45;1.77;;;1.70;;
5981;SDS011;3018;48.730;9.336;2023-07-30T11:26:13;2.35;;;1.42;;
5981;SDS011;3018;48.730;9.336;2023-07-30T11:28:39;2.20;;;1.85;;
5981;SDS011;3018;48.730;9.336;2023-07-30T11:31:06;1.48;;;1.48;;
5981;SDS011;3018;48.730;9.336;2023-07-30T11:33:33;1.60;;;1.50;;
5981;SDS011;3018;48.730;9.336;2023-07-30T11:36:00;1.20;;;1.13;;
5981;SDS011;3018;48.730;9.336;2023-07-30T11:38:27;1.75;;;1.65;;
5981;SDS011;3018;48.730;9.336;2023-07-30T11:40:55;1.20;;;1.20;;
5981;SDS011;3018;48.730;9.336;2023-07-30T11:43:21;3.03;;;1.70;;
5981;SDS011;3018;48.730;9.336;2023-07-30T11:45:48;1.45;;;1.35;;
5981;SDS011;3018;48.730;9.336;2023-07-30T11:48:14;1.85;;;1.48;;
5981;SDS011;3018;48.730;9.336;2023-07-30T11:50:44;1.73;;;1.63;;
5981;SDS011;3018;48.730;9.336;2023-07-30T11:53:11;1.67;;;1.50;;
5981;SDS011;3018;48.730;9.336;2023-07-30T11:55:37;1.70;;;1.40;;
5981;SDS011;3018;48.730;9.336;2023-07-30T11:58:05;1.67;;;1.58;;
5981;SDS011;3018;48.730;9.336;2023-07-30T12:00:32;1.85;;;1.70;;
5981;SDS011;3018;48.730;9.336;2023-07-30T12:02:59;1.65;;;1.40;;
5981;SDS011;3018;48.730;9.336;2023-07-30T12:05:32;1.65;;;1.20;;
5981;SDS011;3018;48.730;9.336;2023-07-30T12:07:58;4.85;;;1.77;;
5981;SDS011;3018;48.730;9.336;2023-07-30T12:10:27;1.77;;;1.67;;
5981;SDS011;3018;48.730;9.336;2023-07-30T12:12:54;1.60;;;1.50;;
5981;SDS011;3018;48.730;9.336;2023-07-30T12:15:21;4.68;;;1.65;;
5981;SDS011;3018;48.730;9.336;2023-07-30T12:17:48;2.35;;;1.40;;
5981;SDS011;3018;48.730;9.336;2023-07-30T12:20:14;1.23;;;1.17;;
5981;SDS011;3018;48.730;9.336;2023-07-30T12:22:40;4.75;;;1.67;;
5981;SDS011;3018;48.730;9.336;2023-07-30T12:25:09;2.00;;;1.30;;
5981;SDS011;3018;48.730;9.336;2023-07-30T12:27:35;1.45;;;1.35;;
5981;SDS011;3018;48.730;9.336;2023-07-30T12:30:02;2.90;;;1.55;;
5981;SDS011;3018;48.730;9.336;2023-07-30T12:32:29;1.85;;;1.58;;
5981;SDS011;3018;48.730;9.336;2023-07-30T12:34:56;1.88;;;1.70;;
5981;SDS011;3018;48.730;9.336;2023-07-30T12:37:22;3.88;;;2.30;;
5981;SDS011;3018;48.730;9.336;2023-07-30T12:39:48;4.45;;;1.55;;
5981;SDS011;3018;48.730;9.336;2023-07-30T12:42:15;7.15;;;1.88;;
5981;SDS011;3018;48.730;9.336;2023-07-30T12:44:41;6.07;;;1.65;;
5981;SDS011;3018;48.730;9.336;2023-07-30T12:47:07;1.40;;;1.33;;
5981;SDS011;3018;48.730;9.336;2023-07-30T12:49:35;1.70;;;1.23;;
5981;SDS011;3018;48.730;9.336;2023-07-30T12:52:02;1.58;;;1.23;;
5981;SDS011;3018;48.730;9.336;2023-07-30T12:54:28;1.63;;;1.52;;
5981;SDS011;3018;48.730;9.336;2023-07-30T12:56:54;3.55;;;1.88;;
5981;SDS011;3018;48.730;9.336;2023-07-30T12:59:21;1.88;;;1.50;;
5981;SDS011;3018;48.730;9.336;2023-07-30T13:01:47;1.70;;;1.60;;
5981;SDS011;3018;48.730;9.336;2023-07-30T13:04:13;3.40;;;1.70;;
5981;SDS011;3018;48.730;9.336;2023-07-30T13:06:41;1.92;;;1.83;;
5981;SDS011;3018;48.730;9.336;2023-07-30T13:09:07;1.80;;;1.70;;
5981;SDS011;3018;48.730;9.336;2023-07-30T13:11:33;1.35;;;1.25;;
5981;SDS011;3018;48.730;9.336;2023-07-30T13:14:01;1.60;;;1.40;;
5981;SDS011;3018;48.730;9.336;2023-07-30T13:16:28;2.13;;;1.40;;
5981;SDS011;3018;48.730;9.336;2023-07-30T13:18:55;2.58;;;1.27;;
5981;SDS011;3018;48.730;9.336;2023-07-30T13:21:22;1.83;;;1.70;;
5981;SDS011;3018;48.730;9.336;2023-07-30T13:23:50;1.60;;;1.60;;
5981;SDS011;3018;48.730;9.336;2023-07-30T13:26:16;1.17;;;1.17;;
5981;SDS011;3018;48.730;9.336;2023-07-30T13:28:43;6.70;;;1.50;;
5981;SDS011;3018;48.730;9.336;2023-07-30T13:31:10;1.50;;;1.40;;
5981;SDS011;3018;48.730;9.336;2023-07-30T13:33:36;1.33;;;1.30;;
5981;SDS011;3018;48.730;9.336;2023-07-30T13:36:02;1.58;;;1.48;;
5981;SDS011;3018;48.730;9.336;2023-07-30T13:38:30;1.63;;;1.52;;
5981;SDS011;3018;48.730;9.336;2023-07-30T13:40:57;1.38;;;1.27;;
5981;SDS011;3018;48.730;9.336;2023-07-30T13:43:24;1.70;;;1.40;;
5981;SDS011;3018;48.730;9.336;2023-07-30T13:45:50;1.52;;;1.42;;
5981;SDS011;3018;48.730;9.336;2023-07-30T13:48:17;2.28;;;1.40;;
5981;SDS011;3018;48.730;9.336;2023-07-30T13:50:44;1.67;;;1.30;;
5981;SDS011;3018;48.730;9.336;2023-07-30T13:53:10;4.22;;;1.70;;
5981;SDS011;3018;48.730;9.336;2023-07-30T13:55:37;2.45;;;1.83;;
5981;SDS011;3018;48.730;9.336;2023-07-30T13:58:05;1.58;;;1.40;;
5981;SDS011;3018;48.730;9.336;2023-07-30T14:00:31;2.05;;;1.75;;
5981;SDS011;3018;48.730;9.336;2023-07-30T14:02:57;1.95;;;1.50;;
5981;SDS011;3018;48.730;9.336;2023-07-30T14:05:24;1.27;;;1.17;;
5981;SDS011;3018;48.730;9.336;2023-07-30T14:07:50;3.85;;;1.70;;
5981;SDS011;3018;48.730;9.336;2023-07-30T14:10:18;3.22;;;1.55;;
5981;SDS011;3018;48.730;9.336;2023-07-30T14:12:45;1.73;;;1.30;;
5981;SDS011;3018;48.730;9.336;2023-07-30T14:15:12;1.42;;;1.30;;
5981;SDS011;3018;48.730;9.336;2023-07-30T14:17:39;1.42;;;1.40;;
5981;SDS011;3018;48.730;9.336;2023-07-30T14:20:06;2.35;;;1.50;;
5981;SDS011;3018;48.730;9.336;2023-07-30T14:22:33;2.03;;;1.30;;
5981;SDS011;3018;48.730;9.336;2023-07-30T14:24:59;2.92;;;1.35;;
5981;SDS011;3018;48.730;9.336;2023-07-30T14:27:25;1.55;;;1.33;;
5981;SDS011;3018;48.730;9.336;2023-07-30T14:29:52;1.13;;;1.13;;
5981;SDS011;3018;48.730;9.336;2023-07-30T14:32:19;2.72;;;1.48;;
5981;SDS011;3018;48.730;9.336;2023-07-30T14:34:46;1.83;;;1.23;;
5981;SDS011;3018;48.730;9.336;2023-07-30T14:37:12;1.95;;;1.13;;
5981;SDS011;3018;48.730;9.336;2023-07-30T14:39:39;3.45;;;1.40;;
5981;SDS011;3018;48.730;9.336;2023-07-30T14:42:06;6.63;;;1.42;;
5981;SDS011;3018;48.730;9.336;2023-07-30T14:44:32;1.83;;;1.30;;
5981;SDS011;3018;48.730;9.336;2023-07-30T14:46:58;2.17;;;1.23;;
5981;SDS011;3018;48.730;9.336;2023-07-30T14:49:26;2.00;;;1.27;;
5981;SDS011;3018;48.730;9.336;2023-07-30T14:51:53;4.70;;;1.40;;
5981;SDS011;3018;48.730;9.336;2023-07-30T14:54:19;3.38;;;1.30;;
5981;SDS011;3018;48.730;9.336;2023-07-30T14:56:46;1.17;;;1.10;;
5981;SDS011;3018;48.730;9.336;2023-07-30T14:59:12;1.63;;;1.30;;
5981;SDS011;3018;48.730;9.336;2023-07-30T15:01:38;1.25;;;1.15;;
5981;SDS011;3018;48.730;9.336;2023-07-30T15:04:04;2.63;;;1.25;;
5981;SDS011;3018;48.730;9.336;2023-07-30T15:06:32;1.40;;;1.20;;
5981;SDS011;3018;48.730;9.336;2023-07-30T15:08:58;1.15;;;1.05;;
5981;SDS011;3018;48.730;9.336;2023-07-30T15:11:25;1.77;;;1.20;;
5981;SDS011;3018;48.730;9.336;2023-07-30T15:13:52;0.98;;;0.90;;